Time;durP1;ratioP1;P1;durP2;ratioP2;P2;SDS_P1;SDS_P2;PMS_P1;PMS_P2;Temp;Humidity;BMP_temperature;BMP_pressure;BME280_temperature;BME280_humidity;BME280_pressure;Samples;Min_cycle;Max_cycle;Signal;HPM_P1;HPM_P2
2022/03/12 00:00:26;;;;;;;;;4.50;4.50;;;;;;;;2;261076044;261076044;-78
2022/03/12 00:08:46;;;;;;;;;1.50;1.50;;;;;;;;2;261077963;261077963;-79
2022/03/12 00:17:46;;;;;;;;;2.00;2.00;;;;;;;;2;261074544;261074544;-79
2022/03/12 00:26:02;;;;;;;;;3.00;3.00;;;;;;;;2;261075113;261075113;-79
2022/03/12 00:35:09;;;;;;;;;4.00;4.00;;;;;;;;2;261075352;261075352;-79
2022/03/12 00:43:25;;;;;;;;;2.50;2.50;;;;;;;;2;261076844;261076844;-80
2022/03/12 00:52:25;;;;;;;;;7.00;3.00;;;;;;;;2;261078503;261078503;-80
2022/03/12 01:00:41;;;;;;;;;2.00;2.00;;;;;;;;2;261075839;261075839;-80
2022/03/12 01:09:41;;;;;;;;;1.50;1.50;;;;;;;;2;261075026;261075026;-80
2022/03/12 01:17:57;;;;;;;;;1.50;1.50;;;;;;;;2;261078528;261078528;-80
2022/03/12 01:26:57;;;;;;;;;3.50;0.50;;;;;;;;2;261081041;261081041;-81
2022/03/12 01:35:13;;;;;;;;;3.00;3.00;;;;;;;;2;261079761;261079761;-79
2022/03/12 01:44:14;;;;;;;;;1.00;1.00;;;;;;;;2;261074530;261074530;-81
2022/03/12 01:52:30;;;;;;;;;3.50;3.50;;;;;;;;2;261070088;261070088;-80
2022/03/12 02:01:31;;;;;;;;;0.50;0.50;;;;;;;;2;261075514;261075514;-81
2022/03/12 02:09:47;;;;;;;;;0.50;0.50;;;;;;;;2;261074732;261074732;-80
2022/03/12 02:18:48;;;;;;;;;2.50;2.50;;;;;;;;2;261076138;261076138;-80
2022/03/12 02:27:04;;;;;;;;;2.50;2.50;;;;;;;;2;261069459;261069459;-81
2022/03/12 02:36:06;;;;;;;;;1.50;1.50;;;;;;;;2;261071382;261071382;-80
2022/03/12 02:44:24;;;;;;;;;4.50;4.50;;;;;;;;2;261070591;261070591;-80
2022/03/12 02:53:24;;;;;;;;;4.00;4.00;;;;;;;;2;261076351;261076351;-80
2022/03/12 03:01:40;;;;;;;;;2.00;0.00;;;;;;;;2;261076494;261076494;-80
2022/03/12 03:10:42;;;;;;;;;4.00;4.00;;;;;;;;2;261074869;261074869;-80
2022/03/12 03:18:57;;;;;;;;;3.50;3.50;;;;;;;;2;261074513;261074513;-81
2022/03/12 03:27:58;;;;;;;;;3.00;3.00;;;;;;;;2;261074257;261074257;-80
2022/03/12 03:36:13;;;;;;;;;1.50;1.50;;;;;;;;2;261076500;261076500;-81
2022/03/12 03:45:21;;;;;;;;;0.50;0.50;;;;;;;;2;261077493;261077493;-78
2022/03/12 03:53:36;;;;;;;;;1.00;1.00;;;;;;;;2;261075567;261075567;-79
2022/03/12 04:02:36;;;;;;;;;14.00;2.50;;;;;;;;2;261074103;261074103;-79
2022/03/12 04:10:52;;;;;;;;;3.00;1.50;;;;;;;;2;261073174;261073174;-79
2022/03/12 04:19:54;;;;;;;;;7.00;1.50;;;;;;;;2;261076895;261076895;-78
2022/03/12 04:28:09;;;;;;;;;7.50;4.00;;;;;;;;2;261075962;261075962;-79
2022/03/12 04:37:09;;;;;;;;;0.50;0.50;;;;;;;;2;261074677;261074677;-79
2022/03/12 04:45:26;;;;;;;;;2.50;2.50;;;;;;;;2;261074244;261074244;-79
2022/03/12 04:54:33;;;;;;;;;1.00;1.00;;;;;;;;2;261070705;261070705;-79
2022/03/12 05:02:52;;;;;;;;;0.50;0.50;;;;;;;;2;261073641;261073641;-80
2022/03/12 05:11:53;;;;;;;;;0.00;0.00;;;;;;;;2;261074483;261074483;-79
2022/03/12 05:20:10;;;;;;;;;4.00;4.00;;;;;;;;2;261076660;261076660;-80
2022/03/12 05:29:10;;;;;;;;;2.50;2.50;;;;;;;;2;261078828;261078828;-80
2022/03/12 05:37:26;;;;;;;;;0.50;0.50;;;;;;;;2;261077790;261077790;-80
2022/03/12 05:46:27;;;;;;;;;1.00;1.00;;;;;;;;2;261077534;261077534;-80
2022/03/12 05:54:45;;;;;;;;;2.50;2.50;;;;;;;;2;261075721;261075721;-80
2022/03/12 06:03:46;;;;;;;;;1.50;1.50;;;;;;;;2;261078359;261078359;-80
2022/03/12 06:12:02;;;;;;;;;2.00;2.00;;;;;;;;2;261076258;261076258;-79
2022/03/12 06:21:04;;;;;;;;;5.50;5.50;;;;;;;;2;261072075;261072075;-80
2022/03/12 06:29:19;;;;;;;;;0.50;0.50;;;;;;;;2;261076121;261076121;-80
2022/03/12 06:38:20;;;;;;;;;2.50;2.50;;;;;;;;2;261076123;261076123;-80
2022/03/12 06:46:36;;;;;;;;;6.00;2.50;;;;;;;;2;261077004;261077004;-80
2022/03/12 06:55:36;;;;;;;;;2.00;2.00;;;;;;;;2;261074349;261074349;-80
2022/03/12 07:03:52;;;;;;;;;1.50;1.50;;;;;;;;2;261073227;261073227;-80
2022/03/12 07:12:52;;;;;;;;;4.00;4.00;;;;;;;;2;261074118;261074118;-80
2022/03/12 07:21:07;;;;;;;;;1.00;1.00;;;;;;;;2;261073137;261073137;-80
2022/03/12 07:30:10;;;;;;;;;0.50;0.50;;;;;;;;2;261080491;261080491;-80
2022/03/12 07:38:25;;;;;;;;;3.00;3.00;;;;;;;;2;261079895;261079895;-79
2022/03/12 07:47:26;;;;;;;;;13.50;2.50;;;;;;;;2;261077814;261077814;-80
2022/03/12 07:55:41;;;;;;;;;6.00;6.00;;;;;;;;2;261072427;261072427;-79
2022/03/12 08:04:42;;;;;;;;;13.00;1.00;;;;;;;;2;261102384;261102384;-79
2022/03/12 08:12:58;;;;;;;;;3.00;3.00;;;;;;;;2;261082048;261082048;-78
2022/03/12 08:22:03;;;;;;;;;2.00;2.00;;;;;;;;2;261083071;261083071;-80
2022/03/12 08:30:20;;;;;;;;;1.50;1.50;;;;;;;;2;261074421;261074421;-80
2022/03/12 08:39:20;;;;;;;;;1.50;1.50;;;;;;;;2;261075228;261075228;-80
2022/03/12 08:47:37;;;;;;;;;5.00;5.00;;;;;;;;2;261077687;261077687;-79
2022/03/12 08:56:37;;;;;;;;;3.50;3.50;;;;;;;;2;261081628;261081628;-79
2022/03/12 09:04:53;;;;;;;;;6.50;3.50;;;;;;;;2;261081905;261081905;-77
2022/03/12 09:13:54;;;;;;;;;16.00;5.00;;;;;;;;2;261077455;261077455;-77
2022/03/12 09:22:09;;;;;;;;;2.50;2.50;;;;;;;;2;261074340;261074340;-77
2022/03/12 09:31:10;;;;;;;;;6.50;6.50;;;;;;;;2;261080189;261080189;-79
2022/03/12 09:39:26;;;;;;;;;3.50;3.50;;;;;;;;2;261076257;261076257;-80
2022/03/12 09:48:26;;;;;;;;;26.50;5.50;;;;;;;;2;261079714;261079714;-80
2022/03/12 09:56:43;;;;;;;;;9.00;4.00;;;;;;;;2;261076020;261076020;-79
2022/03/12 10:05:43;;;;;;;;;1.50;1.50;;;;;;;;2;261072066;261072066;-80
2022/03/12 10:13:59;;;;;;;;;5.00;5.00;;;;;;;;2;261072825;261072825;-80
2022/03/12 10:22:59;;;;;;;;;2.50;2.50;;;;;;;;2;261077382;261077382;-80
2022/03/12 10:31:19;;;;;;;;;2.00;0.50;;;;;;;;2;261076118;261076118;-80
2022/03/12 10:40:25;;;;;;;;;6.50;3.50;;;;;;;;2;261076402;261076402;-80
2022/03/12 10:48:41;;;;;;;;;5.00;5.00;;;;;;;;2;261076822;261076822;-80
2022/03/12 10:57:53;;;;;;;;;4.00;4.00;;;;;;;;2;261071610;261071610;-80
2022/03/12 11:06:09;;;;;;;;;3.50;3.50;;;;;;;;2;261075194;261075194;-80
2022/03/12 11:15:15;;;;;;;;;13.00;4.00;;;;;;;;2;261075980;261075980;-80
2022/03/12 11:23:31;;;;;;;;;21.00;9.00;;;;;;;;2;261077129;261077129;-80
2022/03/12 11:32:35;;;;;;;;;5.00;5.00;;;;;;;;2;261077848;261077848;-82
2022/03/12 11:41:05;;;;;;;;;4.50;4.50;;;;;;;;2;261074057;261074057;-79
2022/03/12 11:50:08;;;;;;;;;6.00;6.00;;;;;;;;2;261074100;261074100;-78
2022/03/12 11:58:24;;;;;;;;;5.50;5.50;;;;;;;;2;261075198;261075198;-79
2022/03/12 12:07:27;;;;;;;;;5.50;5.50;;;;;;;;2;261071220;261071220;-79
2022/03/12 12:15:45;;;;;;;;;9.00;9.00;;;;;;;;2;261073806;261073806;-79
2022/03/12 12:24:46;;;;;;;;;2.50;2.50;;;;;;;;2;261072664;261072664;-79
2022/03/12 12:33:12;;;;;;;;;5.00;5.00;;;;;;;;2;261075464;261075464;-79
2022/03/12 12:42:12;;;;;;;;;7.50;7.50;;;;;;;;2;261079588;261079588;-79
2022/03/12 12:50:28;;;;;;;;;2.50;2.50;;;;;;;;2;261080557;261080557;-79
2022/03/12 12:59:38;;;;;;;;;5.50;5.50;;;;;;;;2;261079332;261079332;-79
2022/03/12 13:08:00;;;;;;;;;5.00;5.00;;;;;;;;2;261076927;261076927;-80
2022/03/12 13:17:02;;;;;;;;;8.00;8.00;;;;;;;;2;261079062;261079062;-79
2022/03/12 13:25:18;;;;;;;;;5.50;5.50;;;;;;;;2;261075512;261075512;-79
2022/03/12 13:34:18;;;;;;;;;13.00;13.00;;;;;;;;2;261077960;261077960;-79
2022/03/12 13:42:34;;;;;;;;;3.50;1.50;;;;;;;;2;261076308;261076308;-78
2022/03/12 13:51:36;;;;;;;;;3.00;3.00;;;;;;;;2;261081691;261081691;-79
2022/03/12 13:59:59;;;;;;;;;3.50;3.50;;;;;;;;2;261076224;261076224;-79
2022/03/12 14:09:02;;;;;;;;;4.00;4.00;;;;;;;;2;261080752;261080752;-80
2022/03/12 14:17:25;;;;;;;;;2.00;2.00;;;;;;;;2;261078138;261078138;-80
2022/03/12 14:26:25;;;;;;;;;3.50;3.50;;;;;;;;2;261079070;261079070;-80
2022/03/12 14:34:42;;;;;;;;;6.00;6.00;;;;;;;;2;261074344;261074344;-79
2022/03/12 14:43:44;;;;;;;;;6.50;1.50;;;;;;;;2;261078369;261078369;-78
2022/03/12 14:52:01;;;;;;;;;7.50;7.50;;;;;;;;2;261074309;261074309;-79
2022/03/12 15:01:01;;;;;;;;;6.50;6.50;;;;;;;;2;261075327;261075327;-80
2022/03/12 15:09:22;;;;;;;;;8.00;5.00;;;;;;;;2;261075867;261075867;-77
2022/03/12 15:21:51;;;;;;;;;3.50;3.50;;;;;;;;2;261075422;261075422;-81
2022/03/12 15:30:08;;;;;;;;;3.00;3.00;;;;;;;;2;261076969;261076969;-81
2022/03/12 15:39:09;;;;;;;;;3.00;3.00;;;;;;;;2;261078671;261078671;-81
2022/03/12 15:47:26;;;;;;;;;1.50;1.50;;;;;;;;2;261077203;261077203;-81
2022/03/12 15:56:29;;;;;;;;;2.00;2.00;;;;;;;;2;261076263;261076263;-81
2022/03/12 16:04:46;;;;;;;;;2.00;2.00;;;;;;;;2;261078428;261078428;-81
2022/03/12 16:13:47;;;;;;;;;2.50;2.50;;;;;;;;2;261081526;261081526;-79
2022/03/12 16:22:03;;;;;;;;;3.00;3.00;;;;;;;;2;261077714;261077714;-79
2022/03/12 16:31:03;;;;;;;;;2.50;2.50;;;;;;;;2;261081342;261081342;-79
2022/03/12 16:39:19;;;;;;;;;1.00;1.00;;;;;;;;2;261078306;261078306;-84
2022/03/12 16:48:21;;;;;;;;;1.50;1.50;;;;;;;;2;261079792;261079792;-80
2022/03/12 16:56:36;;;;;;;;;1.50;1.50;;;;;;;;2;261072801;261072801;-80
2022/03/12 17:05:39;;;;;;;;;8.00;4.50;;;;;;;;2;261077530;261077530;-81
2022/03/12 17:13:56;;;;;;;;;2.00;2.00;;;;;;;;2;261077623;261077623;-82
2022/03/12 17:22:57;;;;;;;;;5.00;5.00;;;;;;;;2;261077216;261077216;-81
2022/03/12 17:31:15;;;;;;;;;3.00;3.00;;;;;;;;2;261074195;261074195;-81
2022/03/12 17:40:16;;;;;;;;;4.00;4.00;;;;;;;;2;261074114;261074114;-81
2022/03/12 17:48:32;;;;;;;;;2.00;2.00;;;;;;;;2;261076427;261076427;-80
2022/03/12 17:57:32;;;;;;;;;4.00;4.00;;;;;;;;2;261078148;261078148;-81
2022/03/12 18:05:48;;;;;;;;;1.50;1.50;;;;;;;;2;261079361;261079361;-80
2022/03/12 18:14:51;;;;;;;;;5.00;5.00;;;;;;;;2;261082190;261082190;-82
2022/03/12 18:23:09;;;;;;;;;9.00;9.00;;;;;;;;2;261071494;261071494;-83
2022/03/12 18:32:21;;;;;;;;;5.50;5.50;;;;;;;;2;261083186;261083186;-83
2022/03/12 18:40:39;;;;;;;;;6.00;6.00;;;;;;;;2;261075839;261075839;-84
2022/03/12 18:49:41;;;;;;;;;1.50;1.50;;;;;;;;2;261074961;261074961;-83
2022/03/12 18:57:57;;;;;;;;;3.50;3.50;;;;;;;;2;261081517;261081517;-82
2022/03/12 19:06:58;;;;;;;;;3.50;3.50;;;;;;;;2;261087568;261087568;-83
2022/03/12 19:15:14;;;;;;;;;1.00;1.00;;;;;;;;2;261086324;261086324;-82
2022/03/12 19:24:16;;;;;;;;;2.50;2.50;;;;;;;;2;261087253;261087253;-81
2022/03/12 19:32:48;;;;;;;;;2.50;2.50;;;;;;;;2;261087233;261087233;-82
2022/03/12 19:42:00;;;;;;;;;1.50;1.50;;;;;;;;2;261084478;261084478;-81
2022/03/12 19:50:16;;;;;;;;;5.50;5.50;;;;;;;;2;261081065;261081065;-81
2022/03/12 19:59:19;;;;;;;;;5.50;5.50;;;;;;;;2;261081092;261081092;-82
2022/03/12 20:07:34;;;;;;;;;16.50;5.00;;;;;;;;2;261077240;261077240;-82
2022/03/12 20:16:35;;;;;;;;;8.00;8.00;;;;;;;;2;261078718;261078718;-81
2022/03/12 20:24:52;;;;;;;;;7.00;7.00;;;;;;;;2;261079447;261079447;-80
2022/03/12 20:33:53;;;;;;;;;6.00;6.00;;;;;;;;2;261081566;261081566;-82
2022/03/12 20:42:09;;;;;;;;;6.50;6.50;;;;;;;;2;261082060;261082060;-81
2022/03/12 20:51:09;;;;;;;;;9.00;9.00;;;;;;;;2;261077619;261077619;-83
2022/03/12 20:59:25;;;;;;;;;7.00;7.00;;;;;;;;2;261075758;261075758;-84
2022/03/12 21:08:28;;;;;;;;;6.50;6.50;;;;;;;;2;261073968;261073968;-82
2022/03/12 21:16:43;;;;;;;;;24.00;12.50;;;;;;;;2;261077553;261077553;-83
2022/03/12 21:25:44;;;;;;;;;12.00;9.00;;;;;;;;2;261075476;261075476;-84
2022/03/12 21:33:59;;;;;;;;;22.50;11.00;;;;;;;;2;261070546;261070546;-84
2022/03/12 21:43:02;;;;;;;;;8.00;6.00;;;;;;;;2;261079409;261079409;-85
2022/03/12 21:51:20;;;;;;;;;19.00;19.00;;;;;;;;2;261070624;261070624;-84
2022/03/12 22:00:22;;;;;;;;;6.00;6.00;;;;;;;;2;261069419;261069419;-83
2022/03/12 22:08:40;;;;;;;;;12.50;12.50;;;;;;;;2;261079175;261079175;-84
2022/03/12 22:17:40;;;;;;;;;10.00;10.00;;;;;;;;2;261081091;261081091;-84
2022/03/12 22:25:56;;;;;;;;;5.00;5.00;;;;;;;;2;261080210;261080210;-82
2022/03/12 22:34:57;;;;;;;;;5.50;5.50;;;;;;;;2;261077087;261077087;-80
2022/03/12 22:43:14;;;;;;;;;10.00;10.00;;;;;;;;2;261077353;261077353;-81
2022/03/12 22:52:14;;;;;;;;;10.00;10.00;;;;;;;;2;261080626;261080626;-81
2022/03/12 23:00:59;;;;;;;;;6.00;6.00;;;;;;;;2;261079809;261079809;-81
2022/03/12 23:09:59;;;;;;;;;6.50;6.50;;;;;;;;2;261081174;261081174;-81
2022/03/12 23:18:15;;;;;;;;;7.00;7.00;;;;;;;;2;261077830;261077830;-79
2022/03/12 23:27:43;;;;;;;;;11.00;8.00;;;;;;;;2;261078014;261078014;-80
2022/03/12 23:35:58;;;;;;;;;5.50;4.00;;;;;;;;2;261079542;261079542;-78
2022/03/12 23:44:59;;;;;;;;;9.00;9.00;;;;;;;;2;261079765;261079765;-77
2022/03/12 23:53:16;;;;;;;;;5.00;5.00;;;;;;;;2;261081647;261081647;-78
